sensor_id;sensor_type;location;lat;lon;timestamp;P1;durP1;ratioP1;P2;durP2;ratioP2
70675;SDS011;59069;52.242;20.900;2022-12-07T00:01:08;36.72;;;13.70;;
70675;SDS011;59069;52.242;20.900;2022-12-07T00:03:34;31.58;;;13.30;;
70675;SDS011;59069;52.242;20.900;2022-12-07T00:06:01;32.80;;;13.02;;
70675;SDS011;59069;52.242;20.900;2022-12-07T00:08:28;38.90;;;14.20;;
70675;SDS011;59069;52.242;20.900;2022-12-07T00:11:00;37.57;;;13.67;;
70675;SDS011;59069;52.242;20.900;2022-12-07T00:13:27;37.65;;;14.95;;
70675;SDS011;59069;52.242;20.900;2022-12-07T00:15:52;36.80;;;13.57;;
70675;SDS011;59069;52.242;20.900;2022-12-07T00:18:17;34.80;;;14.20;;
70675;SDS011;59069;52.242;20.900;2022-12-07T00:20:43;37.27;;;14.63;;
70675;SDS011;59069;52.242;20.900;2022-12-07T00:23:08;39.07;;;14.73;;
70675;SDS011;59069;52.242;20.900;2022-12-07T00:25:34;36.03;;;15.47;;
70675;SDS011;59069;52.242;20.900;2022-12-07T00:27:59;36.53;;;14.97;;
70675;SDS011;59069;52.242;20.900;2022-12-07T00:30:25;37.03;;;15.27;;
70675;SDS011;59069;52.242;20.900;2022-12-07T00:32:50;41.33;;;17.10;;
70675;SDS011;59069;52.242;20.900;2022-12-07T00:35:16;49.07;;;17.53;;
70675;SDS011;59069;52.242;20.900;2022-12-07T00:37:41;47.03;;;17.13;;
70675;SDS011;59069;52.242;20.900;2022-12-07T00:40:07;49.87;;;18.60;;
70675;SDS011;59069;52.242;20.900;2022-12-07T00:42:33;47.65;;;17.85;;
70675;SDS011;59069;52.242;20.900;2022-12-07T00:44:58;53.27;;;20.07;;
70675;SDS011;59069;52.242;20.900;2022-12-07T00:47:23;48.78;;;19.52;;
70675;SDS011;59069;52.242;20.900;2022-12-07T00:49:49;55.00;;;19.80;;
70675;SDS011;59069;52.242;20.900;2022-12-07T00:52:14;55.93;;;20.33;;
70675;SDS011;59069;52.242;20.900;2022-12-07T00:54:40;49.60;;;19.80;;
70675;SDS011;59069;52.242;20.900;2022-12-07T00:57:05;55.88;;;20.83;;
70675;SDS011;59069;52.242;20.900;2022-12-07T00:59:31;65.80;;;22.07;;
70675;SDS011;59069;52.242;20.900;2022-12-07T01:01:56;55.23;;;21.13;;
70675;SDS011;59069;52.242;20.900;2022-12-07T01:04:22;53.70;;;20.92;;
70675;SDS011;59069;52.242;20.900;2022-12-07T01:06:47;58.83;;;22.10;;
70675;SDS011;59069;52.242;20.900;2022-12-07T01:09:13;60.53;;;20.73;;
70675;SDS011;59069;52.242;20.900;2022-12-07T01:11:38;57.23;;;20.77;;
70675;SDS011;59069;52.242;20.900;2022-12-07T01:14:04;63.58;;;20.70;;
70675;SDS011;59069;52.242;20.900;2022-12-07T01:16:30;52.17;;;19.80;;
70675;SDS011;59069;52.242;20.900;2022-12-07T01:18:57;52.15;;;19.48;;
70675;SDS011;59069;52.242;20.900;2022-12-07T01:21:24;53.38;;;20.70;;
70675;SDS011;59069;52.242;20.900;2022-12-07T01:23:52;53.77;;;19.93;;
70675;SDS011;59069;52.242;20.900;2022-12-07T01:26:19;57.70;;;20.52;;
70675;SDS011;59069;52.242;20.900;2022-12-07T01:28:47;51.80;;;18.35;;
70675;SDS011;59069;52.242;20.900;2022-12-07T01:31:14;51.65;;;18.42;;
70675;SDS011;59069;52.242;20.900;2022-12-07T01:33:44;48.90;;;18.53;;
70675;SDS011;59069;52.242;20.900;2022-12-07T01:36:14;45.13;;;16.65;;
70675;SDS011;59069;52.242;20.900;2022-12-07T01:38:48;45.03;;;16.95;;
70675;SDS011;59069;52.242;20.900;2022-12-07T01:41:16;40.75;;;16.58;;
70675;SDS011;59069;52.242;20.900;2022-12-07T01:46:34;36.57;;;14.97;;
70675;SDS011;59069;52.242;20.900;2022-12-07T01:49:00;39.67;;;14.32;;
70675;SDS011;59069;52.242;20.900;2022-12-07T01:51:27;37.45;;;15.70;;
70675;SDS011;59069;52.242;20.900;2022-12-07T01:53:53;32.67;;;13.13;;
70675;SDS011;59069;52.242;20.900;2022-12-07T01:56:20;31.92;;;12.57;;
70675;SDS011;59069;52.242;20.900;2022-12-07T01:58:48;29.98;;;13.10;;
70675;SDS011;59069;52.242;20.900;2022-12-07T02:01:15;31.60;;;12.37;;
70675;SDS011;59069;52.242;20.900;2022-12-07T02:03:42;28.05;;;10.77;;
70675;SDS011;59069;52.242;20.900;2022-12-07T02:06:09;24.08;;;9.75;;
70675;SDS011;59069;52.242;20.900;2022-12-07T02:08:37;21.50;;;9.73;;
70675;SDS011;59069;52.242;20.900;2022-12-07T02:11:03;25.30;;;8.90;;
70675;SDS011;59069;52.242;20.900;2022-12-07T02:13:30;19.00;;;7.85;;
70675;SDS011;59069;52.242;20.900;2022-12-07T02:16:17;18.38;;;7.88;;
70675;SDS011;59069;52.242;20.900;2022-12-07T02:24:09;16.38;;;7.60;;
70675;SDS011;59069;52.242;20.900;2022-12-07T02:29:35;17.55;;;6.28;;
70675;SDS011;59069;52.242;20.900;2022-12-07T02:32:13;13.77;;;6.10;;
70675;SDS011;59069;52.242;20.900;2022-12-07T02:39:57;15.37;;;5.77;;
70675;SDS011;59069;52.242;20.900;2022-12-07T02:42:32;17.52;;;6.80;;
70675;SDS011;59069;52.242;20.900;2022-12-07T02:45:01;15.23;;;6.70;;
70675;SDS011;59069;52.242;20.900;2022-12-07T02:47:28;15.98;;;6.32;;
70675;SDS011;59069;52.242;20.900;2022-12-07T02:49:56;15.65;;;6.55;;
70675;SDS011;59069;52.242;20.900;2022-12-07T02:52:21;17.47;;;7.03;;
70675;SDS011;59069;52.242;20.900;2022-12-07T02:54:47;15.70;;;6.50;;
70675;SDS011;59069;52.242;20.900;2022-12-07T02:59:50;16.20;;;6.18;;
70675;SDS011;59069;52.242;20.900;2022-12-07T03:05:13;15.20;;;5.57;;
70675;SDS011;59069;52.242;20.900;2022-12-07T03:13:17;15.45;;;6.32;;
70675;SDS011;59069;52.242;20.900;2022-12-07T03:18:24;16.80;;;6.55;;
70675;SDS011;59069;52.242;20.900;2022-12-07T03:20:52;15.50;;;6.32;;
70675;SDS011;59069;52.242;20.900;2022-12-07T03:23:20;16.13;;;6.97;;
70675;SDS011;59069;52.242;20.900;2022-12-07T03:25:49;19.10;;;7.88;;
70675;SDS011;59069;52.242;20.900;2022-12-07T03:28:18;18.90;;;6.88;;
70675;SDS011;59069;52.242;20.900;2022-12-07T03:30:55;20.50;;;7.35;;
70675;SDS011;59069;52.242;20.900;2022-12-07T03:33:31;14.40;;;6.32;;
70675;SDS011;59069;52.242;20.900;2022-12-07T03:36:11;15.07;;;6.90;;
70675;SDS011;59069;52.242;20.900;2022-12-07T03:38:48;14.77;;;6.00;;
70675;SDS011;59069;52.242;20.900;2022-12-07T03:41:28;11.98;;;5.22;;
70675;SDS011;59069;52.242;20.900;2022-12-07T03:43:56;14.85;;;5.53;;
70675;SDS011;59069;52.242;20.900;2022-12-07T03:49:04;11.93;;;4.33;;
70675;SDS011;59069;52.242;20.900;2022-12-07T03:51:51;10.25;;;4.18;;
70675;SDS011;59069;52.242;20.900;2022-12-07T03:54:41;11.77;;;4.47;;
70675;SDS011;59069;52.242;20.900;2022-12-07T03:57:31;9.73;;;4.20;;
70675;SDS011;59069;52.242;20.900;2022-12-07T03:59:58;12.95;;;4.88;;
70675;SDS011;59069;52.242;20.900;2022-12-07T04:02:26;12.50;;;4.20;;
70675;SDS011;59069;52.242;20.900;2022-12-07T04:04:53;14.35;;;5.53;;
70675;SDS011;59069;52.242;20.900;2022-12-07T04:07:19;10.73;;;4.13;;
70675;SDS011;59069;52.242;20.900;2022-12-07T04:09:45;13.57;;;4.57;;
70675;SDS011;59069;52.242;20.900;2022-12-07T04:12:10;12.60;;;4.27;;
70675;SDS011;59069;52.242;20.900;2022-12-07T04:14:35;12.93;;;5.03;;
70675;SDS011;59069;52.242;20.900;2022-12-07T04:17:01;11.67;;;5.23;;
70675;SDS011;59069;52.242;20.900;2022-12-07T04:19:31;11.13;;;3.97;;
70675;SDS011;59069;52.242;20.900;2022-12-07T04:21:58;13.00;;;4.97;;
70675;SDS011;59069;52.242;20.900;2022-12-07T04:24:26;10.20;;;4.53;;
70675;SDS011;59069;52.242;20.900;2022-12-07T04:26:51;12.23;;;4.80;;
70675;SDS011;59069;52.242;20.900;2022-12-07T04:29:18;12.57;;;4.60;;
70675;SDS011;59069;52.242;20.900;2022-12-07T04:31:44;13.77;;;5.00;;
70675;SDS011;59069;52.242;20.900;2022-12-07T04:34:09;13.88;;;5.05;;
70675;SDS011;59069;52.242;20.900;2022-12-07T04:36:35;13.68;;;4.88;;
70675;SDS011;59069;52.242;20.900;2022-12-07T04:39:01;12.07;;;5.03;;
70675;SDS011;59069;52.242;20.900;2022-12-07T04:41:28;12.88;;;4.43;;
70675;SDS011;59069;52.242;20.900;2022-12-07T04:43:57;12.27;;;4.80;;
70675;SDS011;59069;52.242;20.900;2022-12-07T04:46:26;12.73;;;5.32;;
70675;SDS011;59069;52.242;20.900;2022-12-07T04:48:53;14.43;;;5.05;;
70675;SDS011;59069;52.242;20.900;2022-12-07T04:51:20;11.63;;;4.50;;
70675;SDS011;59069;52.242;20.900;2022-12-07T04:53:53;13.25;;;5.35;;
70675;SDS011;59069;52.242;20.900;2022-12-07T04:56:19;12.00;;;4.83;;
70675;SDS011;59069;52.242;20.900;2022-12-07T04:58:46;13.93;;;5.03;;
70675;SDS011;59069;52.242;20.900;2022-12-07T05:01:12;12.18;;;4.90;;
70675;SDS011;59069;52.242;20.900;2022-12-07T05:03:39;12.60;;;4.93;;
70675;SDS011;59069;52.242;20.900;2022-12-07T05:06:05;11.75;;;4.55;;
70675;SDS011;59069;52.242;20.900;2022-12-07T05:08:31;13.48;;;4.57;;
70675;SDS011;59069;52.242;20.900;2022-12-07T05:10:57;12.87;;;4.90;;
70675;SDS011;59069;52.242;20.900;2022-12-07T05:13:23;14.43;;;5.22;;
70675;SDS011;59069;52.242;20.900;2022-12-07T05:15:48;12.13;;;4.47;;
70675;SDS011;59069;52.242;20.900;2022-12-07T05:18:14;12.48;;;5.15;;
70675;SDS011;59069;52.242;20.900;2022-12-07T05:20:40;14.23;;;5.03;;
70675;SDS011;59069;52.242;20.900;2022-12-07T05:23:06;13.32;;;4.80;;
70675;SDS011;59069;52.242;20.900;2022-12-07T05:25:31;14.13;;;5.10;;
70675;SDS011;59069;52.242;20.900;2022-12-07T05:27:57;12.48;;;4.97;;
70675;SDS011;59069;52.242;20.900;2022-12-07T05:30:23;10.93;;;4.37;;
70675;SDS011;59069;52.242;20.900;2022-12-07T05:32:49;11.20;;;4.53;;
70675;SDS011;59069;52.242;20.900;2022-12-07T05:35:16;12.97;;;4.93;;
70675;SDS011;59069;52.242;20.900;2022-12-07T05:37:42;13.38;;;4.63;;
70675;SDS011;59069;52.242;20.900;2022-12-07T05:40:07;12.05;;;4.45;;
70675;SDS011;59069;52.242;20.900;2022-12-07T05:42:34;12.40;;;4.87;;
70675;SDS011;59069;52.242;20.900;2022-12-07T05:45:00;11.43;;;4.65;;
70675;SDS011;59069;52.242;20.900;2022-12-07T05:47:25;13.63;;;4.47;;
70675;SDS011;59069;52.242;20.900;2022-12-07T05:49:51;10.38;;;4.07;;
70675;SDS011;59069;52.242;20.900;2022-12-07T05:52:16;10.90;;;4.70;;
70675;SDS011;59069;52.242;20.900;2022-12-07T05:54:42;12.73;;;4.67;;
70675;SDS011;59069;52.242;20.900;2022-12-07T05:57:07;10.88;;;5.32;;
70675;SDS011;59069;52.242;20.900;2022-12-07T05:59:33;10.40;;;4.50;;
70675;SDS011;59069;52.242;20.900;2022-12-07T06:04:27;14.20;;;5.05;;
70675;SDS011;59069;52.242;20.900;2022-12-07T06:06:54;11.32;;;3.88;;
70675;SDS011;59069;52.242;20.900;2022-12-07T06:09:20;11.73;;;4.32;;
70675;SDS011;59069;52.242;20.900;2022-12-07T06:11:46;12.38;;;4.80;;
70675;SDS011;59069;52.242;20.900;2022-12-07T06:14:31;11.93;;;4.73;;
70675;SDS011;59069;52.242;20.900;2022-12-07T06:16:58;11.38;;;4.22;;
70675;SDS011;59069;52.242;20.900;2022-12-07T06:19:23;11.70;;;4.47;;
70675;SDS011;59069;52.242;20.900;2022-12-07T06:21:49;13.60;;;4.22;;
70675;SDS011;59069;52.242;20.900;2022-12-07T06:24:15;10.57;;;4.20;;
70675;SDS011;59069;52.242;20.900;2022-12-07T06:26:41;12.00;;;4.28;;
70675;SDS011;59069;52.242;20.900;2022-12-07T06:29:07;13.73;;;4.50;;
70675;SDS011;59069;52.242;20.900;2022-12-07T06:31:33;11.75;;;4.00;;
70675;SDS011;59069;52.242;20.900;2022-12-07T06:33:59;13.90;;;5.13;;
70675;SDS011;59069;52.242;20.900;2022-12-07T06:36:25;13.05;;;4.65;;
70675;SDS011;59069;52.242;20.900;2022-12-07T06:38:51;11.70;;;4.35;;
70675;SDS011;59069;52.242;20.900;2022-12-07T06:41:17;12.37;;;4.40;;
70675;SDS011;59069;52.242;20.900;2022-12-07T06:43:43;13.10;;;4.85;;
70675;SDS011;59069;52.242;20.900;2022-12-07T06:46:08;14.30;;;5.60;;
70675;SDS011;59069;52.242;20.900;2022-12-07T06:48:33;12.47;;;4.60;;
70675;SDS011;59069;52.242;20.900;2022-12-07T06:50:59;11.38;;;4.90;;
70675;SDS011;59069;52.242;20.900;2022-12-07T06:53:24;12.53;;;4.50;;
70675;SDS011;59069;52.242;20.900;2022-12-07T06:55:50;12.37;;;4.50;;
70675;SDS011;59069;52.242;20.900;2022-12-07T06:58:16;10.45;;;4.40;;
70675;SDS011;59069;52.242;20.900;2022-12-07T07:00:41;11.23;;;4.57;;
70675;SDS011;59069;52.242;20.900;2022-12-07T07:03:07;13.38;;;5.07;;
70675;SDS011;59069;52.242;20.900;2022-12-07T07:05:33;11.87;;;4.57;;
70675;SDS011;59069;52.242;20.900;2022-12-07T07:07:58;14.52;;;5.00;;
70675;SDS011;59069;52.242;20.900;2022-12-07T07:10:24;13.23;;;4.40;;
70675;SDS011;59069;52.242;20.900;2022-12-07T07:12:49;10.57;;;4.10;;
70675;SDS011;59069;52.242;20.900;2022-12-07T07:15:15;10.77;;;4.35;;
70675;SDS011;59069;52.242;20.900;2022-12-07T07:17:40;12.80;;;4.20;;
70675;SDS011;59069;52.242;20.900;2022-12-07T07:20:06;12.43;;;5.20;;
70675;SDS011;59069;52.242;20.900;2022-12-07T07:22:32;12.20;;;4.68;;
70675;SDS011;59069;52.242;20.900;2022-12-07T07:24:57;13.10;;;5.13;;
70675;SDS011;59069;52.242;20.900;2022-12-07T07:27:23;15.33;;;5.37;;
70675;SDS011;59069;52.242;20.900;2022-12-07T07:29:48;12.18;;;4.85;;
70675;SDS011;59069;52.242;20.900;2022-12-07T07:32:13;12.50;;;4.50;;
70675;SDS011;59069;52.242;20.900;2022-12-07T07:34:39;11.57;;;4.30;;
70675;SDS011;59069;52.242;20.900;2022-12-07T07:37:04;12.73;;;4.60;;
70675;SDS011;59069;52.242;20.900;2022-12-07T07:39:30;13.32;;;4.88;;
70675;SDS011;59069;52.242;20.900;2022-12-07T07:41:55;13.43;;;4.67;;
70675;SDS011;59069;52.242;20.900;2022-12-07T07:44:21;11.70;;;4.50;;
70675;SDS011;59069;52.242;20.900;2022-12-07T07:46:46;11.15;;;4.60;;
70675;SDS011;59069;52.242;20.900;2022-12-07T07:49:12;11.37;;;4.80;;
70675;SDS011;59069;52.242;20.900;2022-12-07T07:51:37;14.67;;;5.17;;
70675;SDS011;59069;52.242;20.900;2022-12-07T07:54:03;12.48;;;4.45;;
70675;SDS011;59069;52.242;20.900;2022-12-07T07:56:29;12.70;;;4.70;;
70675;SDS011;59069;52.242;20.900;2022-12-07T07:58:54;13.18;;;5.05;;
70675;SDS011;59069;52.242;20.900;2022-12-07T08:01:20;13.93;;;4.60;;
70675;SDS011;59069;52.242;20.900;2022-12-07T08:03:46;14.93;;;4.53;;
70675;SDS011;59069;52.242;20.900;2022-12-07T08:06:12;13.30;;;4.97;;
70675;SDS011;59069;52.242;20.900;2022-12-07T08:08:37;12.25;;;4.63;;
70675;SDS011;59069;52.242;20.900;2022-12-07T08:11:06;13.47;;;4.60;;
70675;SDS011;59069;52.242;20.900;2022-12-07T08:13:33;15.98;;;5.47;;
70675;SDS011;59069;52.242;20.900;2022-12-07T08:16:03;11.18;;;4.35;;
70675;SDS011;59069;52.242;20.900;2022-12-07T08:18:37;15.48;;;4.90;;
70675;SDS011;59069;52.242;20.900;2022-12-07T08:21:04;14.63;;;4.95;;
70675;SDS011;59069;52.242;20.900;2022-12-07T08:23:31;14.27;;;5.00;;
70675;SDS011;59069;52.242;20.900;2022-12-07T08:26:03;14.75;;;5.32;;
70675;SDS011;59069;52.242;20.900;2022-12-07T08:28:31;21.10;;;6.50;;
70675;SDS011;59069;52.242;20.900;2022-12-07T08:31:00;16.93;;;5.80;;
70675;SDS011;59069;52.242;20.900;2022-12-07T08:33:26;17.40;;;5.68;;
70675;SDS011;59069;52.242;20.900;2022-12-07T08:35:52;23.63;;;7.35;;
70675;SDS011;59069;52.242;20.900;2022-12-07T08:38:18;19.20;;;6.90;;
70675;SDS011;59069;52.242;20.900;2022-12-07T08:40:43;20.10;;;6.17;;
70675;SDS011;59069;52.242;20.900;2022-12-07T08:43:08;18.65;;;6.70;;
70675;SDS011;59069;52.242;20.900;2022-12-07T08:45:34;16.87;;;7.07;;
70675;SDS011;59069;52.242;20.900;2022-12-07T08:48:07;21.35;;;6.93;;
70675;SDS011;59069;52.242;20.900;2022-12-07T08:50:37;16.33;;;6.33;;
70675;SDS011;59069;52.242;20.900;2022-12-07T08:53:03;20.73;;;7.45;;
70675;SDS011;59069;52.242;20.900;2022-12-07T08:55:30;20.48;;;6.93;;
70675;SDS011;59069;52.242;20.900;2022-12-07T08:57:59;18.17;;;7.13;;
70675;SDS011;59069;52.242;20.900;2022-12-07T09:00:25;19.60;;;7.20;;
70675;SDS011;59069;52.242;20.900;2022-12-07T09:02:51;17.30;;;7.25;;
70675;SDS011;59069;52.242;20.900;2022-12-07T09:05:18;20.60;;;7.38;;
70675;SDS011;59069;52.242;20.900;2022-12-07T09:07:44;20.50;;;7.07;;
70675;SDS011;59069;52.242;20.900;2022-12-07T09:10:14;20.77;;;7.00;;
70675;SDS011;59069;52.242;20.900;2022-12-07T09:12:39;19.50;;;7.00;;
70675;SDS011;59069;52.242;20.900;2022-12-07T09:15:05;22.13;;;7.25;;
70675;SDS011;59069;52.242;20.900;2022-12-07T09:17:34;20.80;;;7.63;;
70675;SDS011;59069;52.242;20.900;2022-12-07T09:20:01;23.45;;;8.27;;
70675;SDS011;59069;52.242;20.900;2022-12-07T09:22:29;21.05;;;7.47;;
70675;SDS011;59069;52.242;20.900;2022-12-07T09:24:56;19.63;;;6.93;;
70675;SDS011;59069;52.242;20.900;2022-12-07T09:27:22;17.90;;;6.53;;
70675;SDS011;59069;52.242;20.900;2022-12-07T09:29:47;20.63;;;7.00;;
70675;SDS011;59069;52.242;20.900;2022-12-07T09:32:13;17.80;;;6.70;;
70675;SDS011;59069;52.242;20.900;2022-12-07T09:34:38;16.07;;;5.90;;
70675;SDS011;59069;52.242;20.900;2022-12-07T09:37:04;20.00;;;7.28;;
70675;SDS011;59069;52.242;20.900;2022-12-07T09:39:29;16.53;;;6.47;;
70675;SDS011;59069;52.242;20.900;2022-12-07T09:41:56;20.13;;;6.77;;
70675;SDS011;59069;52.242;20.900;2022-12-07T09:44:25;21.05;;;6.60;;
70675;SDS011;59069;52.242;20.900;2022-12-07T09:46:52;19.48;;;6.07;;
70675;SDS011;59069;52.242;20.900;2022-12-07T09:49:21;17.30;;;6.27;;
70675;SDS011;59069;52.242;20.900;2022-12-07T09:51:59;18.45;;;6.25;;
70675;SDS011;59069;52.242;20.900;2022-12-07T09:54:27;19.42;;;6.10;;
70675;SDS011;59069;52.242;20.900;2022-12-07T09:56:54;21.52;;;5.70;;
70675;SDS011;59069;52.242;20.900;2022-12-07T09:59:20;18.50;;;5.77;;
70675;SDS011;59069;52.242;20.900;2022-12-07T10:01:47;17.98;;;6.43;;
70675;SDS011;59069;52.242;20.900;2022-12-07T10:04:19;16.85;;;5.85;;
70675;SDS011;59069;52.242;20.900;2022-12-07T10:06:46;18.30;;;6.57;;
70675;SDS011;59069;52.242;20.900;2022-12-07T10:09:14;20.75;;;6.53;;
70675;SDS011;59069;52.242;20.900;2022-12-07T10:14:27;18.17;;;5.95;;
70675;SDS011;59069;52.242;20.900;2022-12-07T10:16:55;18.02;;;6.15;;
70675;SDS011;59069;52.242;20.900;2022-12-07T10:19:26;18.83;;;6.70;;
70675;SDS011;59069;52.242;20.900;2022-12-07T10:22:14;21.95;;;6.70;;
70675;SDS011;59069;52.242;20.900;2022-12-07T10:24:42;17.02;;;6.07;;
70675;SDS011;59069;52.242;20.900;2022-12-07T10:29:57;16.00;;;5.90;;
70675;SDS011;59069;52.242;20.900;2022-12-07T10:32:33;17.70;;;6.38;;
70675;SDS011;59069;52.242;20.900;2022-12-07T10:37:50;16.92;;;5.60;;
70675;SDS011;59069;52.242;20.900;2022-12-07T10:40:24;20.25;;;6.68;;
70675;SDS011;59069;52.242;20.900;2022-12-07T10:51:38;17.90;;;6.70;;
70675;SDS011;59069;52.242;20.900;2022-12-07T11:21:57;16.60;;;6.28;;
70675;SDS011;59069;52.242;20.900;2022-12-07T11:30:57;18.92;;;6.78;;
70675;SDS011;59069;52.242;20.900;2022-12-07T11:35:45;17.83;;;7.07;;
70675;SDS011;59069;52.242;20.900;2022-12-07T11:38:15;16.93;;;6.53;;
70675;SDS011;59069;52.242;20.900;2022-12-07T11:40:43;16.20;;;6.57;;
70675;SDS011;59069;52.242;20.900;2022-12-07T11:45:43;14.40;;;5.80;;
70675;SDS011;59069;52.242;20.900;2022-12-07T11:48:32;15.63;;;6.05;;
70675;SDS011;59069;52.242;20.900;2022-12-07T11:51:03;14.87;;;6.07;;
70675;SDS011;59069;52.242;20.900;2022-12-07T11:53:38;14.20;;;6.10;;
70675;SDS011;59069;52.242;20.900;2022-12-07T11:58:51;15.85;;;6.28;;
70675;SDS011;59069;52.242;20.900;2022-12-07T12:04:42;18.43;;;6.33;;
70675;SDS011;59069;52.242;20.900;2022-12-07T12:07:22;15.65;;;6.47;;
70675;SDS011;59069;52.242;20.900;2022-12-07T12:10:03;17.02;;;7.35;;
70675;SDS011;59069;52.242;20.900;2022-12-07T12:18:15;14.47;;;5.50;;
70675;SDS011;59069;52.242;20.900;2022-12-07T12:26:22;15.63;;;6.22;;
70675;SDS011;59069;52.242;20.900;2022-12-07T12:33:49;18.45;;;7.00;;
70675;SDS011;59069;52.242;20.900;2022-12-07T12:46:55;14.90;;;5.47;;
70675;SDS011;59069;52.242;20.900;2022-12-07T12:51:51;16.50;;;6.23;;
70675;SDS011;59069;52.242;20.900;2022-12-07T12:59:34;18.63;;;6.40;;
70675;SDS011;59069;52.242;20.900;2022-12-07T13:02:14;14.35;;;5.72;;
70675;SDS011;59069;52.242;20.900;2022-12-07T13:10:24;13.68;;;4.75;;
70675;SDS011;59069;52.242;20.900;2022-12-07T13:13:05;15.25;;;5.10;;
70675;SDS011;59069;52.242;20.900;2022-12-07T13:15:54;12.10;;;4.82;;
70675;SDS011;59069;52.242;20.900;2022-12-07T13:18:40;10.55;;;3.78;;
70675;SDS011;59069;52.242;20.900;2022-12-07T13:32:39;13.80;;;5.15;;
70675;SDS011;59069;52.242;20.900;2022-12-07T13:34:48;14.07;;;5.15;;
70675;SDS011;59069;52.242;20.900;2022-12-07T13:39:57;14.40;;;5.43;;
70675;SDS011;59069;52.242;20.900;2022-12-07T13:42:25;14.23;;;5.38;;
70675;SDS011;59069;52.242;20.900;2022-12-07T13:44:54;13.77;;;5.40;;
70675;SDS011;59069;52.242;20.900;2022-12-07T13:47:31;15.07;;;5.68;;
70675;SDS011;59069;52.242;20.900;2022-12-07T13:49:58;16.05;;;5.85;;
70675;SDS011;59069;52.242;20.900;2022-12-07T13:55:34;18.40;;;6.75;;
70675;SDS011;59069;52.242;20.900;2022-12-07T13:57:44;16.30;;;6.27;;
70675;SDS011;59069;52.242;20.900;2022-12-07T14:00:17;16.25;;;5.95;;
70675;SDS011;59069;52.242;20.900;2022-12-07T14:02:56;17.23;;;6.30;;
70675;SDS011;59069;52.242;20.900;2022-12-07T14:07:57;17.08;;;6.93;;
70675;SDS011;59069;52.242;20.900;2022-12-07T14:10:28;18.20;;;7.20;;
70675;SDS011;59069;52.242;20.900;2022-12-07T14:12:56;18.95;;;7.75;;
70675;SDS011;59069;52.242;20.900;2022-12-07T14:15:32;18.60;;;8.23;;
70675;SDS011;59069;52.242;20.900;2022-12-07T14:18:00;17.30;;;6.93;;
70675;SDS011;59069;52.242;20.900;2022-12-07T14:22:54;17.63;;;7.27;;
70675;SDS011;59069;52.242;20.900;2022-12-07T14:25:24;20.40;;;8.30;;
70675;SDS011;59069;52.242;20.900;2022-12-07T14:27:59;19.35;;;8.30;;
70675;SDS011;59069;52.242;20.900;2022-12-07T14:30:27;18.10;;;7.97;;
70675;SDS011;59069;52.242;20.900;2022-12-07T14:32:56;17.10;;;7.73;;
70675;SDS011;59069;52.242;20.900;2022-12-07T14:35:23;17.02;;;7.20;;
70675;SDS011;59069;52.242;20.900;2022-12-07T14:37:49;19.08;;;8.45;;
70675;SDS011;59069;52.242;20.900;2022-12-07T14:40:20;19.27;;;7.65;;
70675;SDS011;59069;52.242;20.900;2022-12-07T14:45:47;17.47;;;7.30;;
70675;SDS011;59069;52.242;20.900;2022-12-07T14:48:13;19.70;;;8.50;;
70675;SDS011;59069;52.242;20.900;2022-12-07T14:50:44;18.57;;;7.40;;
70675;SDS011;59069;52.242;20.900;2022-12-07T14:53:14;20.05;;;8.23;;
70675;SDS011;59069;52.242;20.900;2022-12-07T14:55:41;18.30;;;7.95;;
70675;SDS011;59069;52.242;20.900;2022-12-07T14:58:10;22.27;;;8.13;;
70675;SDS011;59069;52.242;20.900;2022-12-07T15:00:39;20.27;;;9.20;;
70675;SDS011;59069;52.242;20.900;2022-12-07T15:03:04;21.52;;;8.45;;
70675;SDS011;59069;52.242;20.900;2022-12-07T15:05:30;20.93;;;8.57;;
70675;SDS011;59069;52.242;20.900;2022-12-07T15:07:55;18.67;;;8.63;;
70675;SDS011;59069;52.242;20.900;2022-12-07T15:10:25;19.77;;;8.82;;
70675;SDS011;59069;52.242;20.900;2022-12-07T15:12:57;20.43;;;8.17;;
70675;SDS011;59069;52.242;20.900;2022-12-07T15:15:41;22.98;;;9.00;;
70675;SDS011;59069;52.242;20.900;2022-12-07T15:18:07;21.30;;;9.37;;
70675;SDS011;59069;52.242;20.900;2022-12-07T15:20:33;21.90;;;9.27;;
70675;SDS011;59069;52.242;20.900;2022-12-07T15:22:58;26.33;;;10.43;;
70675;SDS011;59069;52.242;20.900;2022-12-07T15:25:23;24.67;;;9.43;;
70675;SDS011;59069;52.242;20.900;2022-12-07T15:27:49;22.47;;;9.97;;
70675;SDS011;59069;52.242;20.900;2022-12-07T15:30:15;22.80;;;9.57;;
70675;SDS011;59069;52.242;20.900;2022-12-07T15:32:40;18.27;;;8.80;;
70675;SDS011;59069;52.242;20.900;2022-12-07T15:35:06;18.60;;;8.40;;
70675;SDS011;59069;52.242;20.900;2022-12-07T15:37:32;19.42;;;7.60;;
70675;SDS011;59069;52.242;20.900;2022-12-07T15:39:57;19.20;;;8.43;;
70675;SDS011;59069;52.242;20.900;2022-12-07T15:42:23;22.83;;;8.47;;
70675;SDS011;59069;52.242;20.900;2022-12-07T15:44:48;23.17;;;9.27;;
70675;SDS011;59069;52.242;20.900;2022-12-07T15:47:33;20.10;;;7.97;;
70675;SDS011;59069;52.242;20.900;2022-12-07T15:50:04;18.87;;;7.80;;
70675;SDS011;59069;52.242;20.900;2022-12-07T15:52:31;20.15;;;8.77;;
70675;SDS011;59069;52.242;20.900;2022-12-07T15:54:57;21.33;;;8.48;;
70675;SDS011;59069;52.242;20.900;2022-12-07T15:57:22;23.30;;;9.40;;
70675;SDS011;59069;52.242;20.900;2022-12-07T15:59:48;19.50;;;8.53;;
70675;SDS011;59069;52.242;20.900;2022-12-07T16:02:13;22.40;;;9.10;;
70675;SDS011;59069;52.242;20.900;2022-12-07T16:04:39;18.30;;;8.23;;
70675;SDS011;59069;52.242;20.900;2022-12-07T16:07:04;22.13;;;9.77;;
70675;SDS011;59069;52.242;20.900;2022-12-07T16:09:30;19.02;;;8.25;;
70675;SDS011;59069;52.242;20.900;2022-12-07T16:11:56;20.60;;;8.57;;
70675;SDS011;59069;52.242;20.900;2022-12-07T16:14:21;21.15;;;8.45;;
70675;SDS011;59069;52.242;20.900;2022-12-07T16:16:47;19.97;;;8.27;;
70675;SDS011;59069;52.242;20.900;2022-12-07T16:19:13;19.30;;;8.07;;
70675;SDS011;59069;52.242;20.900;2022-12-07T16:21:38;20.77;;;7.70;;
70675;SDS011;59069;52.242;20.900;2022-12-07T16:24:04;20.05;;;8.20;;
70675;SDS011;59069;52.242;20.900;2022-12-07T16:26:30;20.83;;;8.47;;
70675;SDS011;59069;52.242;20.900;2022-12-07T16:28:56;19.33;;;8.23;;
70675;SDS011;59069;52.242;20.900;2022-12-07T16:31:23;19.43;;;8.10;;
70675;SDS011;59069;52.242;20.900;2022-12-07T16:33:50;21.85;;;9.13;;
70675;SDS011;59069;52.242;20.900;2022-12-07T16:36:17;20.77;;;8.90;;
70675;SDS011;59069;52.242;20.900;2022-12-07T16:38:43;18.42;;;7.95;;
70675;SDS011;59069;52.242;20.900;2022-12-07T16:41:09;23.53;;;8.77;;
70675;SDS011;59069;52.242;20.900;2022-12-07T16:43:35;20.23;;;8.30;;
70675;SDS011;59069;52.242;20.900;2022-12-07T16:46:01;21.77;;;8.73;;
70675;SDS011;59069;52.242;20.900;2022-12-07T16:48:27;22.03;;;9.50;;
70675;SDS011;59069;52.242;20.900;2022-12-07T16:50:53;23.92;;;9.25;;
70675;SDS011;59069;52.242;20.900;2022-12-07T16:53:19;22.23;;;9.13;;
70675;SDS011;59069;52.242;20.900;2022-12-07T16:55:45;23.57;;;9.27;;
70675;SDS011;59069;52.242;20.900;2022-12-07T16:58:12;22.77;;;8.80;;
70675;SDS011;59069;52.242;20.900;2022-12-07T17:00:38;21.30;;;9.43;;
70675;SDS011;59069;52.242;20.900;2022-12-07T17:03:04;24.52;;;9.65;;
70675;SDS011;59069;52.242;20.900;2022-12-07T17:05:30;25.70;;;10.27;;